Time;durP1;ratioP1;P1;durP2;ratioP2;P2;SDS_P1;SDS_P2;PMS_P1;PMS_P2;Temp;Humidity;BMP_temperature;BMP_pressure;BME280_temperature;BME280_humidity;BME280_pressure;Samples;Min_cycle;Max_cycle;Signal;HPM_P1;HPM_P2
2022/08/07 00:00:53;;;;;;;1.00;0.90;;;22.80;31.90;;;;;;5094744;28;20790;-88
2022/08/07 00:03:21;;;;;;;1.20;1.10;;;22.80;31.40;;;;;;5076032;28;20523;-88
2022/08/07 00:05:49;;;;;;;1.37;1.10;;;22.80;31.50;;;;;;5065079;28;20446;-87
2022/08/07 00:08:16;;;;;;;1.03;0.90;;;22.90;31.70;;;;;;5056444;28;20792;-90
2022/08/07 00:10:43;;;;;;;1.10;0.90;;;22.90;31.50;;;;;;5093415;28;21020;-89
2022/08/07 00:13:10;;;;;;;1.30;1.10;;;23.00;31.80;;;;;;5074031;28;20982;-90
2022/08/07 00:15:38;;;;;;;1.90;1.10;;;23.00;31.50;;;;;;5044106;28;20452;-89
2022/08/07 00:18:32;;;;;;;1.40;1.30;;;23.00;31.50;;;;;;5059664;28;20562;-88
2022/08/07 00:21:01;;;;;;;3.00;1.10;;;23.00;31.40;;;;;;5066891;28;20538;-88
2022/08/07 00:23:29;;;;;;;2.40;1.10;;;23.00;31.40;;;;;;5079712;28;21804;-88
2022/08/07 00:25:56;;;;;;;1.10;1.00;;;23.00;31.50;;;;;;5075812;28;20443;-88
2022/08/07 00:28:23;;;;;;;1.03;0.93;;;22.90;31.50;;;;;;5059963;28;20506;-90
2022/08/07 00:30:51;;;;;;;1.57;1.13;;;22.90;31.10;;;;;;5065878;28;20864;-89
2022/08/07 00:33:18;;;;;;;3.27;1.50;;;22.90;31.40;;;;;;5069122;28;20553;-88
2022/08/07 00:35:46;;;;;;;1.20;1.10;;;22.80;31.40;;;;;;5060049;28;20439;-88
2022/08/07 00:38:14;;;;;;;1.83;0.97;;;22.80;31.70;;;;;;5076088;28;20466;-88
2022/08/07 00:40:41;;;;;;;1.77;1.10;;;22.80;31.80;;;;;;5073691;28;20439;-89
2022/08/07 00:43:09;;;;;;;2.90;1.47;;;22.80;31.50;;;;;;5075872;28;20465;-88
2022/08/07 00:45:37;;;;;;;4.27;1.13;;;22.70;31.60;;;;;;5046630;28;20440;-89
2022/08/07 00:48:29;;;;;;;1.57;0.87;;;22.70;31.40;;;;;;5064747;28;20512;-89
2022/08/07 00:50:58;;;;;;;3.43;1.20;;;22.70;31.40;;;;;;5076383;28;20464;-89
2022/08/07 00:53:25;;;;;;;0.87;0.83;;;22.60;31.40;;;;;;5093243;28;20554;-90
2022/08/07 00:55:52;;;;;;;1.77;1.17;;;22.60;32.30;;;;;;5071842;28;20454;-89
2022/08/07 00:58:21;;;;;;;2.27;1.20;;;22.60;31.70;;;;;;5074774;28;20502;-88
2022/08/07 01:00:49;;;;;;;1.40;1.00;;;22.60;31.80;;;;;;5067358;28;21028;-89
2022/08/07 01:03:18;;;;;;;2.03;1.10;;;22.50;31.90;;;;;;5090108;28;20436;-89
2022/08/07 01:05:46;;;;;;;1.10;1.00;;;22.50;31.90;;;;;;5056552;28;20816;-88
2022/08/07 01:08:15;;;;;;;1.30;1.10;;;22.50;32.70;;;;;;5092634;28;20471;-88
2022/08/07 01:10:42;;;;;;;1.20;1.10;;;22.50;32.70;;;;;;5058980;28;20448;-89
2022/08/07 01:13:10;;;;;;;3.07;1.00;;;22.30;32.40;;;;;;5075510;28;20940;-88
2022/08/07 01:15:37;;;;;;;1.50;1.10;;;22.10;32.80;;;;;;5059895;28;20447;-89
2022/08/07 01:18:30;;;;;;;1.53;1.37;;;22.00;33.00;;;;;;5077409;28;20532;-88
2022/08/07 01:21:09;;;;;;;1.30;1.20;;;22.00;32.80;;;;;;5044858;28;20478;-89
2022/08/07 01:23:37;;;;;;;3.00;1.10;;;21.80;32.90;;;;;;5064938;28;20493;-88
2022/08/07 01:26:30;;;;;;;1.43;1.10;;;21.60;33.60;;;;;;5060821;28;20525;-88
2022/08/07 01:28:57;;;;;;;1.47;1.10;;;21.80;33.50;;;;;;5096670;28;20443;-88
2022/08/07 01:31:30;;;;;;;1.10;1.00;;;21.90;33.10;;;;;;5080369;28;20450;-88
2022/08/07 01:33:59;;;;;;;1.30;1.20;;;21.90;32.90;;;;;;5062004;28;20491;-88
2022/08/07 01:36:56;;;;;;;1.23;1.13;;;22.00;32.70;;;;;;5084211;28;20506;-89
2022/08/07 01:39:25;;;;;;;1.30;0.90;;;22.00;32.80;;;;;;5076885;28;20431;-89
2022/08/07 01:42:02;;;;;;;1.30;1.20;;;22.00;33.00;;;;;;5062731;28;20463;-89
2022/08/07 01:44:32;;;;;;;1.73;1.00;;;21.90;32.80;;;;;;5063307;28;20489;-89
2022/08/07 01:46:59;;;;;;;1.73;1.33;;;21.80;32.90;;;;;;5079249;28;20954;-88
2022/08/07 01:49:30;;;;;;;1.03;0.93;;;21.70;33.20;;;;;;5053541;28;20504;-88
2022/08/07 01:52:02;;;;;;;1.30;1.13;;;21.80;33.60;;;;;;5053637;28;20543;-88
2022/08/07 01:54:56;;;;;;;1.17;1.07;;;21.80;33.10;;;;;;5070310;28;20838;-89
2022/08/07 01:57:27;;;;;;;1.30;1.10;;;21.70;33.30;;;;;;5070090;28;21353;-89
2022/08/07 02:00:01;;;;;;;1.47;1.10;;;21.60;33.50;;;;;;5056949;28;21191;-89
2022/08/07 02:02:44;;;;;;;2.27;1.10;;;21.60;33.70;;;;;;5062931;28;20954;-90
2022/08/07 02:05:18;;;;;;;1.83;1.10;;;21.60;33.50;;;;;;5039319;28;20435;-89
2022/08/07 02:07:51;;;;;;;2.03;1.00;;;21.60;33.30;;;;;;5067199;28;20466;-88
2022/08/07 02:10:25;;;;;;;2.17;1.10;;;21.60;33.80;;;;;;5067966;28;20467;-89
2022/08/07 02:12:56;;;;;;;1.53;1.10;;;21.60;33.70;;;;;;5062759;28;20447;-88
2022/08/07 02:15:31;;;;;;;1.63;1.37;;;21.60;33.70;;;;;;5080019;28;20529;-88
2022/08/07 02:18:00;;;;;;;1.10;1.00;;;21.50;34.40;;;;;;5080556;28;20998;-88
2022/08/07 02:20:30;;;;;;;1.10;1.00;;;21.50;34.50;;;;;;5052488;28;20447;-88
2022/08/07 02:23:01;;;;;;;1.00;0.90;;;21.40;34.10;;;;;;5079251;28;20439;-89
2022/08/07 02:25:31;;;;;;;1.77;1.10;;;21.40;34.30;;;;;;5069714;28;20519;-89
2022/08/07 02:28:00;;;;;;;1.10;1.00;;;21.30;33.80;;;;;;5077939;28;20495;-89
2022/08/07 02:30:28;;;;;;;1.37;1.27;;;21.30;34.30;;;;;;5048070;28;20439;-88
2022/08/07 02:32:57;;;;;;;2.60;1.20;;;21.20;34.40;;;;;;5047733;28;20448;-88
2022/08/07 02:35:25;;;;;;;1.10;1.00;;;21.30;34.60;;;;;;5078521;28;20517;-88
2022/08/07 02:37:58;;;;;;;1.40;1.10;;;21.30;34.90;;;;;;5063448;28;20483;-89
2022/08/07 02:40:27;;;;;;;1.30;1.20;;;21.30;34.80;;;;;;5062573;28;20996;-88
2022/08/07 02:42:57;;;;;;;2.77;1.20;;;21.20;34.70;;;;;;5078419;28;21181;-89
2022/08/07 02:45:26;;;;;;;1.20;1.10;;;21.20;34.80;;;;;;5079313;28;20531;-89
2022/08/07 02:47:55;;;;;;;1.77;1.20;;;21.20;34.50;;;;;;5063927;28;20458;-89
2022/08/07 02:50:22;;;;;;;3.07;1.10;;;21.20;34.60;;;;;;5077965;28;20441;-88
2022/08/07 02:52:54;;;;;;;1.13;1.03;;;21.20;34.70;;;;;;5085580;28;20821;-88
2022/08/07 02:55:26;;;;;;;1.10;1.00;;;21.20;35.00;;;;;;5052490;28;20456;-88
2022/08/07 02:57:57;;;;;;;1.40;1.20;;;21.10;35.10;;;;;;5052066;28;20478;-89
2022/08/07 03:00:26;;;;;;;1.10;1.00;;;21.10;35.10;;;;;;5061554;28;20446;-88
2022/08/07 03:02:54;;;;;;;1.63;1.13;;;21.10;35.20;;;;;;5081306;28;21253;-88
2022/08/07 03:05:24;;;;;;;3.67;1.30;;;21.00;35.10;;;;;;5075333;28;20531;-88
2022/08/07 03:07:53;;;;;;;1.20;1.10;;;21.00;34.80;;;;;;5079117;28;21002;-88
2022/08/07 03:10:21;;;;;;;1.10;1.00;;;20.90;35.40;;;;;;5068957;28;20542;-88
2022/08/07 03:12:51;;;;;;;1.10;1.00;;;20.80;35.70;;;;;;5068866;28;20474;-88
2022/08/07 03:15:19;;;;;;;2.53;1.30;;;20.80;35.50;;;;;;5068596;28;20455;-88
2022/08/07 03:17:46;;;;;;;1.30;0.90;;;20.80;35.50;;;;;;5064836;28;20531;-88
2022/08/07 03:20:14;;;;;;;1.50;1.30;;;20.80;35.70;;;;;;5047070;28;20876;-88
2022/08/07 03:22:42;;;;;;;1.03;0.93;;;20.80;35.70;;;;;;5079786;28;20436;-89
2022/08/07 03:25:10;;;;;;;1.20;1.10;;;20.80;35.60;;;;;;5062287;28;20454;-88
2022/08/07 03:27:43;;;;;;;1.63;1.47;;;20.80;35.60;;;;;;5043887;28;20472;-88
2022/08/07 03:30:16;;;;;;;1.37;1.10;;;20.80;35.70;;;;;;5071453;28;20461;-88
2022/08/07 03:32:48;;;;;;;1.50;1.10;;;20.70;35.90;;;;;;5060990;28;20461;-88
2022/08/07 03:35:23;;;;;;;1.20;1.10;;;20.70;36.00;;;;;;5064736;28;20908;-90
2022/08/07 03:41:59;;;;;;;3.50;1.47;;;20.60;36.00;;;;;;5058470;28;20488;-89
2022/08/07 03:44:27;;;;;;;2.07;1.10;;;20.50;36.10;;;;;;5067882;28;20448;-87
2022/08/07 03:46:56;;;;;;;1.30;1.17;;;20.50;35.80;;;;;;5052205;28;20479;-88
2022/08/07 03:49:24;;;;;;;1.33;1.23;;;20.30;36.50;;;;;;5066820;28;20495;-88
2022/08/07 03:51:52;;;;;;;1.23;1.13;;;20.20;36.40;;;;;;5053380;28;20451;-88
2022/08/07 03:58:03;;;;;;;1.40;1.10;;;20.20;36.50;;;;;;5096454;28;20463;-89
2022/08/07 04:00:36;;;;;;;1.30;1.20;;;20.20;37.00;;;;;;5076094;28;20460;-88
2022/08/07 04:03:05;;;;;;;1.67;1.40;;;20.20;36.90;;;;;;5060397;28;20451;-88
2022/08/07 04:05:37;;;;;;;1.33;1.23;;;20.20;36.70;;;;;;5050549;28;20486;-89
2022/08/07 04:08:30;;;;;;;1.20;1.10;;;20.20;36.60;;;;;;5075069;28;21077;-88
2022/08/07 04:10:57;;;;;;;1.20;1.10;;;20.20;36.80;;;;;;5059331;28;20477;-88
2022/08/07 04:13:25;;;;;;;1.80;1.20;;;20.20;36.50;;;;;;5046784;28;20455;-88
2022/08/07 04:15:53;;;;;;;2.67;1.20;;;20.20;36.50;;;;;;5058995;28;20494;-88
2022/08/07 04:18:22;;;;;;;1.80;1.20;;;20.20;36.60;;;;;;5083150;28;21234;-89
2022/08/07 04:20:49;;;;;;;1.87;1.00;;;20.20;36.50;;;;;;5045458;28;20443;-89
2022/08/07 04:23:16;;;;;;;1.10;1.00;;;20.20;36.80;;;;;;5074235;28;20447;-87
2022/08/07 04:25:45;;;;;;;2.30;1.47;;;20.10;36.80;;;;;;5060378;28;20458;-89
2022/08/07 04:28:14;;;;;;;1.53;1.17;;;20.10;36.90;;;;;;5063396;28;20551;-88
2022/08/07 04:30:42;;;;;;;1.30;1.20;;;20.10;36.70;;;;;;5079295;28;20889;-88
2022/08/07 04:33:16;;;;;;;1.60;1.20;;;20.00;37.00;;;;;;5048583;28;20480;-87
2022/08/07 04:35:48;;;;;;;1.53;1.23;;;20.00;37.00;;;;;;5083699;28;20473;-88
2022/08/07 04:38:18;;;;;;;1.27;1.17;;;20.00;37.20;;;;;;5066439;28;20470;-88
2022/08/07 04:40:48;;;;;;;1.23;1.13;;;20.00;37.00;;;;;;5061337;28;20486;-88
2022/08/07 04:43:17;;;;;;;1.50;1.40;;;20.00;37.40;;;;;;5065184;28;20727;-88
2022/08/07 04:45:52;;;;;;;2.07;1.30;;;20.00;38.10;;;;;;5065600;28;20448;-88
2022/08/07 04:48:29;;;;;;;2.07;1.20;;;20.00;38.50;;;;;;5044475;28;20487;-88
2022/08/07 04:51:05;;;;;;;1.53;1.37;;;20.10;39.00;;;;;;5062223;28;20465;-88
2022/08/07 04:53:38;;;;;;;1.40;1.30;;;20.10;39.10;;;;;;5077865;28;20439;-89
2022/08/07 04:56:38;;;;;;;1.30;1.20;;;20.10;39.00;;;;;;5066941;28;20474;-89
2022/08/07 05:02:56;;;;;;;1.37;1.27;;;20.10;39.40;;;;;;5053857;28;20483;-86
2022/08/07 05:05:29;;;;;;;1.83;1.50;;;20.10;39.50;;;;;;5068405;28;20856;-89
2022/08/07 05:08:02;;;;;;;4.03;1.20;;;20.10;39.60;;;;;;5052000;28;20478;-88
2022/08/07 05:11:01;;;;;;;1.97;1.33;;;20.10;39.50;;;;;;5087710;28;20504;-89
2022/08/07 05:13:35;;;;;;;1.30;1.20;;;20.10;39.70;;;;;;5070305;28;20818;-88
2022/08/07 05:19:03;;;;;;;2.57;1.50;;;20.20;39.70;;;;;;5070182;28;20431;-88
2022/08/07 05:21:32;;;;;;;1.50;1.30;;;20.20;39.70;;;;;;5080610;28;20472;-88
2022/08/07 05:24:03;;;;;;;1.53;1.10;;;20.20;39.50;;;;;;5062597;28;20475;-88
2022/08/07 05:26:59;;;;;;;2.57;1.60;;;20.20;39.40;;;;;;5097926;28;20494;-88
2022/08/07 05:29:28;;;;;;;1.60;1.50;;;20.20;39.10;;;;;;5076849;28;20466;-89
2022/08/07 05:31:56;;;;;;;3.13;1.33;;;20.20;39.00;;;;;;5060953;28;20546;-89
2022/08/07 05:34:28;;;;;;;1.77;1.20;;;20.20;39.20;;;;;;5061213;28;20454;-88
2022/08/07 05:36:56;;;;;;;2.10;1.30;;;20.20;39.10;;;;;;5069787;28;20478;-89
2022/08/07 05:39:30;;;;;;;1.67;1.00;;;20.20;39.10;;;;;;5063014;28;21429;-88
2022/08/07 05:42:01;;;;;;;1.30;1.13;;;20.20;38.50;;;;;;5078889;28;20534;-88
2022/08/07 05:44:30;;;;;;;1.30;1.20;;;20.20;38.20;;;;;;5045228;28;20447;-89
2022/08/07 05:47:01;;;;;;;2.37;1.27;;;20.20;38.80;;;;;;5061052;28;20497;-88
2022/08/07 05:49:30;;;;;;;1.27;1.17;;;20.20;38.70;;;;;;5062825;28;20549;-89
2022/08/07 05:51:58;;;;;;;1.20;1.10;;;20.20;38.40;;;;;;5066756;28;20819;-89
2022/08/07 05:54:26;;;;;;;2.17;1.33;;;20.20;38.10;;;;;;5064823;28;21067;-89
2022/08/07 05:56:56;;;;;;;2.60;1.10;;;20.20;38.20;;;;;;5046753;28;20458;-90
2022/08/07 05:59:26;;;;;;;2.33;1.23;;;20.30;38.10;;;;;;5083354;28;20456;-89
2022/08/07 06:01:59;;;;;;;2.03;1.13;;;20.20;37.80;;;;;;5076787;28;20447;-89
2022/08/07 06:04:28;;;;;;;1.10;1.00;;;20.20;37.90;;;;;;5058488;28;21235;-90
2022/08/07 06:06:56;;;;;;;1.60;1.50;;;20.30;38.30;;;;;;5063691;28;20482;-88
2022/08/07 06:09:24;;;;;;;1.87;1.33;;;20.40;37.40;;;;;;5061818;28;20448;-88
2022/08/07 06:11:51;;;;;;;3.10;1.43;;;20.40;37.90;;;;;;5061109;28;20487;-89
2022/08/07 06:14:22;;;;;;;1.47;1.10;;;20.50;38.50;;;;;;5084503;28;20467;-87
2022/08/07 06:16:57;;;;;;;1.53;1.10;;;20.60;38.60;;;;;;5062135;28;21059;-89
2022/08/07 06:19:35;;;;;;;1.13;1.03;;;20.70;38.10;;;;;;5076526;28;20447;-89
2022/08/07 06:22:02;;;;;;;1.57;1.17;;;20.80;38.20;;;;;;5061012;28;20444;-89
2022/08/07 06:24:57;;;;;;;1.30;1.20;;;20.90;38.20;;;;;;5060785;28;20447;-88
2022/08/07 06:27:25;;;;;;;1.33;1.23;;;21.00;37.90;;;;;;5062200;28;20562;-89
2022/08/07 06:29:54;;;;;;;1.57;1.20;;;21.10;38.30;;;;;;5059323;28;21032;-89
2022/08/07 06:32:21;;;;;;;1.50;1.40;;;21.10;37.30;;;;;;5054034;28;20431;-90
2022/08/07 06:34:48;;;;;;;1.33;1.10;;;21.20;37.20;;;;;;5057478;28;20451;-89
2022/08/07 06:37:15;;;;;;;5.87;1.20;;;21.30;37.30;;;;;;5068905;28;20479;-89
2022/08/07 06:39:42;;;;;;;1.20;1.10;;;21.50;37.60;;;;;;5061427;28;20436;-89
2022/08/07 06:42:18;;;;;;;1.20;1.10;;;21.50;37.10;;;;;;5082068;28;20458;-89
2022/08/07 06:45:09;;;;;;;1.40;0.93;;;21.70;36.80;;;;;;5044992;28;20447;-88
2022/08/07 06:47:36;;;;;;;1.73;1.20;;;21.90;37.60;;;;;;5077174;28;21034;-89
2022/08/07 06:50:32;;;;;;;1.93;1.10;;;22.00;37.00;;;;;;5080101;28;20451;-88
2022/08/07 06:53:02;;;;;;;1.93;1.23;;;22.20;36.40;;;;;;5064970;28;20545;-90
2022/08/07 06:55:31;;;;;;;1.20;1.10;;;22.30;36.60;;;;;;5068386;28;20566;-89
2022/08/07 06:58:01;;;;;;;2.50;1.10;;;22.50;36.70;;;;;;5077975;28;21036;-89
2022/08/07 07:00:44;;;;;;;2.50;1.20;;;22.60;35.80;;;;;;5093341;28;20443;-89
2022/08/07 07:03:13;;;;;;;3.00;1.30;;;22.70;35.00;;;;;;5076947;28;20501;-89
2022/08/07 07:05:40;;;;;;;1.10;1.00;;;22.90;35.60;;;;;;5049984;28;20458;-89
2022/08/07 07:08:33;;;;;;;1.57;1.23;;;23.10;35.70;;;;;;5060067;28;20468;-88
2022/08/07 07:11:00;;;;;;;1.00;0.90;;;23.30;35.10;;;;;;5093448;28;20534;-89
2022/08/07 07:13:34;;;;;;;1.13;1.03;;;23.40;34.50;;;;;;5050956;28;20443;-89
2022/08/07 07:19:04;;;;;;;1.37;1.00;;;23.60;34.10;;;;;;5045677;28;20446;-89
2022/08/07 07:21:38;;;;;;;1.50;1.00;;;23.70;33.80;;;;;;5094345;28;20535;-88
2022/08/07 07:24:07;;;;;;;2.33;1.00;;;23.80;33.20;;;;;;5071096;28;20479;-88
2022/08/07 07:27:03;;;;;;;1.00;0.90;;;24.00;33.00;;;;;;5062085;28;20459;-88
2022/08/07 07:29:36;;;;;;;1.23;0.90;;;24.20;33.20;;;;;;5056784;28;20440;-89
2022/08/07 07:35:02;;;;;;;1.80;0.80;;;24.30;31.70;;;;;;5063915;28;20436;-89
2022/08/07 07:37:30;;;;;;;0.87;0.80;;;24.20;31.60;;;;;;5057835;28;20471;-88
2022/08/07 07:40:01;;;;;;;1.03;0.93;;;24.20;31.00;;;;;;5081255;28;21061;-87
2022/08/07 07:42:28;;;;;;;1.00;0.90;;;24.10;31.40;;;;;;5091491;28;20537;-86
2022/08/07 07:44:57;;;;;;;1.20;1.10;;;24.00;31.40;;;;;;5088727;28;20452;-87
2022/08/07 07:47:26;;;;;;;2.47;1.30;;;24.10;31.60;;;;;;5047250;28;20549;-88
2022/08/07 07:49:54;;;;;;;1.33;0.93;;;24.10;31.40;;;;;;5067068;28;20452;-87
2022/08/07 07:52:24;;;;;;;1.07;0.97;;;24.30;31.70;;;;;;5076261;28;20443;-89
2022/08/07 07:54:51;;;;;;;1.00;0.90;;;24.50;31.40;;;;;;5086228;28;20452;-87
2022/08/07 07:57:21;;;;;;;1.10;1.00;;;24.70;31.50;;;;;;5068271;28;20471;-88
2022/08/07 08:02:47;;;;;;;1.83;1.00;;;24.50;30.90;;;;;;5057095;28;20450;-87
2022/08/07 08:05:17;;;;;;;1.00;0.90;;;24.70;31.10;;;;;;5086580;28;20454;-89
2022/08/07 08:07:46;;;;;;;1.63;0.90;;;24.90;30.10;;;;;;5080334;28;20498;-88
2022/08/07 08:10:18;;;;;;;1.07;0.97;;;25.20;31.10;;;;;;5071335;28;20475;-87
2022/08/07 08:12:46;;;;;;;1.73;1.00;;;25.40;29.60;;;;;;5067594;28;21096;-88
2022/08/07 08:15:13;;;;;;;1.27;0.90;;;25.50;30.40;;;;;;5087707;28;20447;-87
2022/08/07 08:17:43;;;;;;;1.20;0.97;;;25.70;30.60;;;;;;5073363;28;20491;-87
2022/08/07 08:20:37;;;;;;;1.00;0.90;;;25.90;29.40;;;;;;5065723;28;20454;-89
2022/08/07 08:28:43;;;;;;;1.10;1.00;;;26.30;29.30;;;;;;5031154;28;20839;-87
2022/08/07 08:31:14;;;;;;;1.20;1.10;;;26.40;28.40;;;;;;5078721;28;20466;-87
2022/08/07 08:33:42;;;;;;;1.00;0.90;;;26.30;28.80;;;;;;5056428;28;20454;-87
2022/08/07 08:36:35;;;;;;;1.10;1.00;;;26.40;29.10;;;;;;5082967;28;21129;-88
2022/08/07 08:39:04;;;;;;;1.23;0.90;;;26.40;28.30;;;;;;5038087;28;20443;-88
2022/08/07 08:41:41;;;;;;;1.30;0.97;;;26.60;28.30;;;;;;5072874;28;20446;-88
2022/08/07 08:44:35;;;;;;;2.23;1.20;;;26.80;28.00;;;;;;5076095;28;21336;-87
2022/08/07 08:47:07;;;;;;;1.00;0.90;;;26.70;28.10;;;;;;5069150;28;20486;-87
2022/08/07 08:49:42;;;;;;;1.30;0.90;;;26.80;28.70;;;;;;5087998;28;20958;-88
2022/08/07 08:52:38;;;;;;;1.10;1.00;;;27.10;28.50;;;;;;5067169;28;20455;-87
2022/08/07 08:55:13;;;;;;;1.63;0.80;;;27.10;28.20;;;;;;5068244;28;20435;-88
2022/08/07 08:57:48;;;;;;;1.10;0.97;;;27.00;27.50;;;;;;5060859;28;20563;-87
2022/08/07 09:00:17;;;;;;;1.10;1.00;;;27.20;27.90;;;;;;5085955;28;20965;-87
2022/08/07 09:02:51;;;;;;;1.83;1.10;;;27.30;27.80;;;;;;5071283;28;20553;-88
2022/08/07 09:05:38;;;;;;;1.00;0.90;;;27.30;27.50;;;;;;5086733;28;20455;-87
2022/08/07 09:08:26;;;;;;;1.30;1.00;;;27.40;27.40;;;;;;5085249;28;20474;-89
2022/08/07 09:11:05;;;;;;;3.53;0.90;;;27.10;27.90;;;;;;5087325;28;20954;-87
2022/08/07 09:13:39;;;;;;;1.43;1.03;;;27.20;27.80;;;;;;5069804;28;20459;-87
2022/08/07 09:16:36;;;;;;;1.10;1.00;;;27.10;27.60;;;;;;5071246;28;20470;-89
2022/08/07 09:19:30;;;;;;;0.90;0.80;;;27.30;27.60;;;;;;5058774;28;21084;-87
2022/08/07 09:22:11;;;;;;;1.87;1.03;;;27.30;27.60;;;;;;5085759;28;20465;-86
2022/08/07 09:24:48;;;;;;;1.00;0.90;;;27.40;27.70;;;;;;5090162;28;20448;-87
2022/08/07 09:27:28;;;;;;;1.37;1.27;;;27.80;26.90;;;;;;5086521;28;20558;-85
2022/08/07 09:30:06;;;;;;;1.37;0.97;;;28.10;26.60;;;;;;5070940;28;21092;-88
2022/08/07 09:32:55;;;;;;;1.30;1.00;;;28.30;27.10;;;;;;5093299;28;20518;-89
2022/08/07 09:35:34;;;;;;;1.10;1.00;;;28.50;26.20;;;;;;5060878;28;20446;-88
2022/08/07 09:38:10;;;;;;;2.77;1.13;;;28.50;25.90;;;;;;5073037;28;20459;-87
2022/08/07 09:40:54;;;;;;;1.70;1.10;;;28.50;25.80;;;;;;5072725;28;20438;-88
2022/08/07 09:43:31;;;;;;;1.20;1.07;;;28.80;26.40;;;;;;5091664;28;21048;-87
2022/08/07 09:46:14;;;;;;;2.03;1.20;;;29.10;25.40;;;;;;5045087;28;21005;-87
2022/08/07 09:48:51;;;;;;;2.07;1.20;;;29.10;25.30;;;;;;5094754;28;20523;-88
2022/08/07 09:51:40;;;;;;;1.33;1.23;;;29.10;25.20;;;;;;5092961;28;20446;-88
2022/08/07 09:54:14;;;;;;;2.30;1.03;;;29.00;26.20;;;;;;5073357;28;20458;-89
2022/08/07 09:57:02;;;;;;;1.20;1.10;;;29.10;25.00;;;;;;5088840;28;20482;-87
2022/08/07 09:59:58;;;;;;;1.80;1.30;;;29.20;25.50;;;;;;5091006;28;20462;-87
2022/08/07 10:02:40;;;;;;;4.90;1.30;;;29.70;25.40;;;;;;5073903;28;20451;-87
2022/08/07 10:05:52;;;;;;;1.63;1.40;;;30.10;24.60;;;;;;5088529;28;20999;-86
2022/08/07 10:08:54;;;;;;;2.30;1.30;;;30.00;23.90;;;;;;5090512;28;20808;-87
2022/08/07 10:11:36;;;;;;;1.40;1.30;;;29.90;23.90;;;;;;5056730;28;20487;-88
2022/08/07 10:14:17;;;;;;;2.43;1.03;;;30.20;25.00;;;;;;5091196;28;21193;-88
2022/08/07 10:17:09;;;;;;;1.77;1.00;;;30.00;24.10;;;;;;5073701;28;20485;-86
2022/08/07 10:19:48;;;;;;;2.60;1.20;;;30.20;24.60;;;;;;5072113;28;20431;-89
2022/08/07 10:22:44;;;;;;;1.30;1.20;;;30.40;23.60;;;;;;5090981;28;20447;-88
2022/08/07 10:25:20;;;;;;;3.63;1.10;;;30.00;23.80;;;;;;5070165;28;20481;-86
2022/08/07 10:28:03;;;;;;;2.87;1.20;;;30.10;24.50;;;;;;5091665;28;20957;-87
2022/08/07 10:30:42;;;;;;;1.30;0.83;;;30.10;23.40;;;;;;5089351;28;20940;-89
2022/08/07 10:33:22;;;;;;;2.97;0.93;;;29.80;24.00;;;;;;5090660;28;20545;-84
2022/08/07 10:36:04;;;;;;;1.20;1.07;;;29.80;24.60;;;;;;5071736;28;20464;-87
2022/08/07 10:38:43;;;;;;;1.30;1.20;;;30.20;23.40;;;;;;5091898;28;20542;-89
2022/08/07 10:41:17;;;;;;;1.33;1.00;;;30.10;23.70;;;;;;5053964;28;20451;-87
2022/08/07 10:43:55;;;;;;;3.53;1.07;;;30.30;23.80;;;;;;5090037;28;20448;-88
2022/08/07 10:46:28;;;;;;;1.60;1.10;;;30.20;23.60;;;;;;5080059;28;20447;-88
2022/08/07 10:49:09;;;;;;;1.20;1.10;;;30.60;24.00;;;;;;5088596;28;20443;-89
2022/08/07 10:51:40;;;;;;;2.40;1.40;;;30.80;22.90;;;;;;5071588;28;20853;-87
2022/08/07 10:54:13;;;;;;;1.20;1.10;;;31.20;22.80;;;;;;5089167;28;20448;-87
2022/08/07 10:57:31;;;;;;;1.23;1.10;;;31.50;22.40;;;;;;5086359;28;21009;-88
2022/08/07 11:00:31;;;;;;;1.57;0.93;;;31.50;22.00;;;;;;5071521;28;20447;-88
2022/08/07 11:03:07;;;;;;;1.17;1.07;;;31.50;22.40;;;;;;5055134;28;20455;-87
2022/08/07 11:15:48;;;;;;;1.20;1.10;;;32.00;21.70;;;;;;5071667;28;20807;-90
2022/08/07 11:18:23;;;;;;;0.90;0.90;;;31.90;21.40;;;;;;5065225;28;21061;-88
2022/08/07 11:20:56;;;;;;;1.30;1.03;;;31.80;21.90;;;;;;5079239;28;20432;-88
2022/08/07 11:23:31;;;;;;;1.10;1.00;;;31.90;21.70;;;;;;5072016;28;20787;-88
2022/08/07 11:26:12;;;;;;;1.67;1.03;;;32.20;20.80;;;;;;5056085;28;20542;-88
2022/08/07 11:28:45;;;;;;;1.03;0.93;;;31.70;21.40;;;;;;5091714;28;20479;-89
2022/08/07 11:31:21;;;;;;;1.20;1.10;;;31.50;21.50;;;;;;5056349;28;20464;-88
2022/08/07 11:33:57;;;;;;;1.37;1.00;;;30.80;22.00;;;;;;5074603;28;20447;-89
2022/08/07 11:36:39;;;;;;;1.50;0.93;;;31.00;22.30;;;;;;5072027;28;20831;-88
2022/08/07 11:39:15;;;;;;;1.87;1.23;;;31.30;21.80;;;;;;5091317;28;20435;-87
2022/08/07 11:41:48;;;;;;;2.03;1.00;;;31.50;22.10;;;;;;5058889;28;20538;-87
2022/08/07 11:44:23;;;;;;;3.57;1.10;;;31.90;21.80;;;;;;5092241;28;20439;-87
2022/08/07 11:47:04;;;;;;;1.67;1.20;;;32.20;21.70;;;;;;5071864;28;20479;-90
2022/08/07 11:50:00;;;;;;;1.40;1.00;;;32.60;21.00;;;;;;5091266;28;20453;-87
2022/08/07 11:52:41;;;;;;;1.30;1.03;;;32.80;20.50;;;;;;5090293;28;20445;-89
2022/08/07 11:55:17;;;;;;;1.23;0.90;;;32.80;20.60;;;;;;5090267;28;20453;-92
2022/08/07 11:57:52;;;;;;;1.00;0.90;;;33.00;19.90;;;;;;5090995;28;20481;-88
2022/08/07 12:00:25;;;;;;;1.10;1.00;;;32.50;20.40;;;;;;5071709;28;20435;-88
2022/08/07 12:11:15;;;;;;;1.77;1.00;;;32.90;20.20;;;;;;5069025;28;20439;-87
2022/08/07 12:13:46;;;;;;;1.47;1.10;;;33.00;21.10;;;;;;5090742;28;20439;-87
2022/08/07 12:16:17;;;;;;;2.50;1.00;;;32.80;20.90;;;;;;5070631;28;20855;-87
2022/08/07 12:18:50;;;;;;;1.80;1.10;;;33.10;21.30;;;;;;5074395;28;20565;-86
2022/08/07 12:21:28;;;;;;;2.20;1.10;;;33.40;20.10;;;;;;5089996;28;21161;-86
2022/08/07 12:24:01;;;;;;;4.93;1.20;;;33.40;20.30;;;;;;5089736;28;20458;-88
2022/08/07 12:26:37;;;;;;;1.10;1.00;;;33.50;20.70;;;;;;5086197;28;21448;-86
2022/08/07 12:29:09;;;;;;;0.80;0.80;;;33.50;20.10;;;;;;5089425;28;20453;-87
2022/08/07 12:31:41;;;;;;;1.10;0.83;;;33.50;19.90;;;;;;5072509;28;20459;-86
2022/08/07 12:34:09;;;;;;;4.40;1.00;;;32.90;20.10;;;;;;5087401;28;20447;-86
2022/08/07 12:36:37;;;;;;;1.20;1.00;;;32.30;20.20;;;;;;5070286;28;20451;-89
2022/08/07 12:39:06;;;;;;;1.00;0.90;;;32.30;20.60;;;;;;5088686;28;20466;-87
2022/08/07 12:41:36;;;;;;;7.37;1.00;;;32.10;20.30;;;;;;5086072;28;20455;-89
2022/08/07 12:44:06;;;;;;;1.13;1.03;;;32.60;20.90;;;;;;5068618;28;20451;-86
2022/08/07 12:46:47;;;;;;;5.20;1.00;;;32.90;19.30;;;;;;5068194;28;20444;-88
2022/08/07 12:49:24;;;;;;;1.10;0.97;;;33.00;20.10;;;;;;5086658;28;20871;-87
2022/08/07 12:52:00;;;;;;;1.10;0.90;;;33.30;19.70;;;;;;5054815;28;20819;-88
2022/08/07 12:54:35;;;;;;;1.40;0.97;;;33.50;19.70;;;;;;5088651;28;20804;-87
2022/08/07 12:57:05;;;;;;;1.10;1.00;;;33.80;19.40;;;;;;5085775;28;20518;-87
2022/08/07 12:59:35;;;;;;;1.40;1.10;;;33.60;18.80;;;;;;5069618;28;20448;-87
2022/08/07 13:02:17;;;;;;;2.70;1.00;;;33.20;19.40;;;;;;5086972;28;20533;-87
2022/08/07 13:05:02;;;;;;;2.03;1.03;;;33.00;20.00;;;;;;5068194;28;21001;-86
2022/08/07 13:08:12;;;;;;;1.47;1.37;;;33.20;20.00;;;;;;5087082;28;21070;-88
2022/08/07 13:10:54;;;;;;;1.10;1.00;;;33.50;18.70;;;;;;5071320;28;20444;-88
2022/08/07 13:13:34;;;;;;;1.93;0.80;;;33.60;19.20;;;;;;5067907;28;20954;-86
2022/08/07 13:16:10;;;;;;;1.03;0.93;;;33.60;19.00;;;;;;5084313;28;20451;-89
2022/08/07 13:18:43;;;;;;;1.30;1.13;;;33.60;18.90;;;;;;5085306;28;20598;-88
2022/08/07 13:21:17;;;;;;;1.53;0.97;;;33.80;19.00;;;;;;5075227;28;20442;-88
2022/08/07 13:23:50;;;;;;;1.93;1.10;;;33.70;18.10;;;;;;5067305;28;21129;-89
2022/08/07 13:26:24;;;;;;;1.10;0.90;;;33.20;18.30;;;;;;5092652;28;20529;-88
2022/08/07 13:29:00;;;;;;;1.07;0.80;;;33.40;19.20;;;;;;5088859;28;21091;-86
2022/08/07 13:31:33;;;;;;;1.87;0.90;;;33.70;18.50;;;;;;5083176;28;20444;-88
2022/08/07 13:34:06;;;;;;;1.10;0.90;;;33.80;18.70;;;;;;5072863;28;20440;-87
2022/08/07 13:36:40;;;;;;;1.00;0.90;;;33.80;18.00;;;;;;5087005;28;20974;-87
2022/08/07 13:39:15;;;;;;;1.80;1.00;;;33.90;18.70;;;;;;5072988;28;20527;-86
2022/08/07 13:41:44;;;;;;;1.27;1.00;;;33.90;18.50;;;;;;5066489;28;20473;-87
2022/08/07 13:44:17;;;;;;;2.50;1.20;;;34.00;17.80;;;;;;5055854;28;21111;-87
2022/08/07 13:46:47;;;;;;;1.87;1.00;;;33.70;18.20;;;;;;5072848;28;20475;-88
2022/08/07 13:49:18;;;;;;;1.10;0.90;;;33.60;17.60;;;;;;5091206;28;20438;-88
2022/08/07 13:51:47;;;;;;;1.10;1.00;;;33.80;18.10;;;;;;5087565;28;21261;-89
2022/08/07 13:54:17;;;;;;;1.50;1.10;;;33.80;17.40;;;;;;5078643;28;20463;-88
2022/08/07 13:56:46;;;;;;;1.87;1.20;;;33.70;17.90;;;;;;5068249;28;20472;-87
2022/08/07 13:59:20;;;;;;;1.17;1.07;;;34.00;18.00;;;;;;5060092;28;20475;-88
2022/08/07 14:01:52;;;;;;;1.67;1.10;;;34.00;17.90;;;;;;5039127;28;20455;-90
2022/08/07 14:04:24;;;;;;;1.00;0.90;;;33.90;18.10;;;;;;5092072;28;20505;-89
2022/08/07 14:06:52;;;;;;;1.63;1.00;;;33.50;17.90;;;;;;5076889;28;20471;-86
2022/08/07 14:09:22;;;;;;;1.50;1.17;;;33.80;18.10;;;;;;5059570;28;21054;-87
2022/08/07 14:11:53;;;;;;;1.23;1.00;;;33.50;18.60;;;;;;5073112;28;20456;-87